Time;durP1;ratioP1;P1;durP2;ratioP2;P2;SDS_P1;SDS_P2;PMS_P1;PMS_P2;Temp;Humidity;BMP_temperature;BMP_pressure;BME280_temperature;BME280_humidity;BME280_pressure;Samples;Min_cycle;Max_cycle;Signal;HPM_P1;HPM_P2
2023/01/24 00:00:30;;;;;;;;;;;;;;;-144.99;89.82;52566.31;5079947;28;19968;-76
2023/01/24 00:02:57;;;;;;;;;;;;;;;-144.99;89.95;52541.84;5071675;28;19967;-76
2023/01/24 00:05:25;;;;;;;;;;;;;;;-144.99;89.74;52554.09;5066272;28;19924;-77
2023/01/24 00:07:51;;;;;;;;;;;;;;;-144.99;89.79;52531.66;5067779;28;19971;-75
2023/01/24 00:10:18;;;;;;;;;;;;;;;-144.99;89.91;52521.47;5060887;28;19925;-76
2023/01/24 00:12:44;;;;;;;;;;;;;;;-144.99;89.82;52566.31;5055508;28;19976;-76
2023/01/24 00:15:11;;;;;;;;;;;;;;;-144.99;89.92;52562.25;5068642;28;20378;-75
2023/01/24 00:17:38;;;;;;;;;;;;;;;-144.99;89.46;52533.69;5088438;28;19928;-77
2023/01/24 00:20:05;;;;;;;;;;;;;;;-144.99;89.76;52570.38;5082417;28;19929;-74
2023/01/24 00:22:33;;;;;;;;;;;;;;;-144.99;89.52;52515.34;5082468;28;19939;-75
2023/01/24 00:25:01;;;;;;;;;;;;;;;-144.99;89.44;52558.16;5079204;28;19939;-75
2023/01/24 00:27:31;;;;;;;;;;;;;;;-144.99;89.34;52537.78;5068415;28;20061;-75
2023/01/24 00:29:57;;;;;;;;;;;;;;;-144.99;89.31;52564.28;5065092;28;19954;-75
2023/01/24 00:32:24;;;;;;;;;;;;;;;-144.99;89.09;52566.31;5064144;28;19924;-75
2023/01/24 00:34:50;;;;;;;;;;;;;;;-144.99;89.09;52550.00;5062238;28;19968;-75
2023/01/24 00:37:16;;;;;;;;;;;;;;;-144.99;89.15;52521.47;5066931;28;20015;-75
2023/01/24 00:39:43;;;;;;;;;;;;;;;-144.99;89.33;52519.44;5065257;28;19963;-75
2023/01/24 00:42:11;;;;;;;;;;;;;;;-144.99;89.53;52566.31;5072746;28;19971;-77
2023/01/24 00:44:37;;;;;;;;;;;;;;;-144.99;89.34;52537.78;5083438;28;19950;-76
2023/01/24 00:47:04;;;;;;;;;;;;;;;-144.99;89.33;52533.69;5086261;28;19924;-76
2023/01/24 00:49:30;;;;;;;;;;;;;;;-144.99;89.55;52521.47;5076116;28;19944;-75
2023/01/24 00:51:57;;;;;;;;;;;;;;;-144.99;89.49;52545.94;5062311;28;20023;-76
2023/01/24 00:54:23;;;;;;;;;;;;;;;-144.99;89.60;52480.72;5062101;28;20023;-76
2023/01/24 00:56:50;;;;;;;;;;;;;;;-144.99;89.69;52541.84;5064237;28;19975;-76
2023/01/24 00:59:17;;;;;;;;;;;;;;;-144.99;89.65;52554.09;5068370;28;19935;-76
2023/01/24 01:01:44;;;;;;;;;;;;;;;-144.99;89.51;52564.28;5063368;28;19924;-76
2023/01/24 01:04:11;;;;;;;;;;;;;;;-144.99;89.74;52545.94;5071245;28;19924;-77
2023/01/24 01:06:37;;;;;;;;;;;;;;;-144.99;89.91;52521.47;5061540;28;19925;-76
2023/01/24 01:09:04;;;;;;;;;;;;;;;-144.99;89.83;52545.94;5064291;28;20344;-75
2023/01/24 01:11:30;;;;;;;;;;;;;;;-144.99;89.91;52552.03;5076086;28;20019;-75
2023/01/24 01:13:57;;;;;;;;;;;;;;;-144.99;89.98;52556.13;5076263;28;19932;-77
2023/01/24 01:16:25;;;;;;;;;;;;;;;-144.99;89.98;52558.16;5083297;28;19924;-76
2023/01/24 01:18:54;;;;;;;;;;;;;;;-144.99;90.21;52537.78;5080032;28;19925;-74
2023/01/24 01:21:21;;;;;;;;;;;;;;;-144.99;90.38;52545.94;5056109;28;19978;-76
2023/01/24 01:23:48;;;;;;;;;;;;;;;-144.99;90.24;52558.16;5069391;28;19971;-75
2023/01/24 01:26:16;;;;;;;;;;;;;;;-144.99;90.21;52547.97;5062280;28;19968;-75
2023/01/24 01:28:43;;;;;;;;;;;;;;;-144.99;89.18;52554.09;5063724;28;20023;-75
2023/01/24 01:31:09;;;;;;;;;;;;;;;-144.99;89.74;52554.09;5055114;28;20351;-75
2023/01/24 01:33:37;;;;;;;;;;;;;;;-144.99;89.91;52541.84;5062028;28;19967;-75
2023/01/24 01:36:04;;;;;;;;;;;;;;;-144.99;89.99;52507.19;5064986;28;20295;-75
2023/01/24 01:38:30;;;;;;;;;;;;;;;-144.99;90.13;52533.69;5065609;28;19960;-75
2023/01/24 01:40:57;;;;;;;;;;;;;;;-144.99;90.02;52550.00;5064784;28;20364;-75
2023/01/24 01:43:24;;;;;;;;;;;;;;;-144.99;90.16;52550.00;5062964;28;20019;-75
2023/01/24 01:45:52;;;;;;;;;;;;;;;-144.99;90.11;52521.47;5065477;28;19973;-76
2023/01/24 01:48:22;;;;;;;;;;;;;;;-144.99;90.06;52529.63;5070150;28;19972;-75
2023/01/24 01:50:52;;;;;;;;;;;;;;;-144.99;90.13;52492.94;5058073;28;19964;-75
2023/01/24 01:53:19;;;;;;;;;;;;;;;-144.99;90.18;52513.31;5064940;28;19924;-75
2023/01/24 01:55:49;;;;;;;;;;;;;;;-144.99;90.20;52539.81;5063724;28;20367;-75
2023/01/24 01:58:16;;;;;;;;;;;;;;;-144.99;90.19;52488.84;5063794;28;19971;-75
2023/01/24 02:00:49;;;;;;;;;;;;;;;-144.99;90.20;52550.00;5067717;28;19968;-75
2023/01/24 02:06:02;;;;;;;;;;;;;;;-144.99;90.47;52521.47;5066279;28;19931;-76
2023/01/24 02:08:29;;;;;;;;;;;;;;;-144.99;90.53;52558.16;5068081;28;20351;-76
2023/01/24 02:13:43;;;;;;;;;;;;;;;-144.99;90.74;52543.91;5062549;28;20334;-76
2023/01/24 02:16:09;;;;;;;;;;;;;;;-144.99;90.90;52570.38;5068021;28;19951;-75
2023/01/24 02:18:36;;;;;;;;;;;;;;;-144.99;91.05;52562.25;5071407;28;20272;-75
2023/01/24 02:21:05;;;;;;;;;;;;;;;-144.99;90.91;52562.25;5061445;28;20008;-75
2023/01/24 02:23:36;;;;;;;;;;;;;;;-144.99;91.07;52521.47;5071242;28;19971;-75
2023/01/24 02:26:10;;;;;;;;;;;;;;;-144.99;90.86;52552.03;5066543;28;19924;-75
2023/01/24 02:28:37;;;;;;;;;;;;;;;-144.99;90.84;52541.84;5072777;28;19925;-75
2023/01/24 02:31:04;;;;;;;;;;;;;;;-144.99;90.99;52497.00;5060550;28;19960;-75
2023/01/24 02:33:31;;;;;;;;;;;;;;;-144.99;90.91;52529.63;5067252;28;19967;-75
2023/01/24 02:36:12;;;;;;;;;;;;;;;-144.99;91.13;52574.47;5070394;28;20046;-75
2023/01/24 02:38:39;;;;;;;;;;;;;;;-144.99;90.84;52511.28;5064571;28;19963;-75
2023/01/24 02:41:08;;;;;;;;;;;;;;;-144.99;90.70;52529.63;5067689;28;19978;-75
2023/01/24 02:43:39;;;;;;;;;;;;;;;-144.99;90.90;52554.09;5062576;28;19998;-75
2023/01/24 02:46:06;;;;;;;;;;;;;;;-144.99;90.95;52529.63;5070002;28;20362;-75
2023/01/24 02:48:32;;;;;;;;;;;;;;;-144.99;90.76;52570.38;5068857;28;19978;-75
2023/01/24 02:53:43;;;;;;;;;;;;;;;-144.99;90.77;52529.63;5080536;28;19935;-75
2023/01/24 02:58:55;;;;;;;;;;;;;;;-144.99;89.16;52533.69;5087108;28;19950;-76
2023/01/24 03:01:22;;;;;;;;;;;;;;;-144.99;90.32;52564.28;5080945;28;19933;-76
2023/01/24 03:03:49;;;;;;;;;;;;;;;-144.99;90.97;52550.00;5091653;28;19932;-75
2023/01/24 03:06:17;;;;;;;;;;;;;;;-144.99;91.40;52603.00;5086357;28;19924;-76
2023/01/24 03:08:43;;;;;;;;;;;;;;;-144.99;91.50;52525.56;5083966;28;19946;-75
2023/01/24 03:11:10;;;;;;;;;;;;;;;-144.99;91.51;52552.03;5096189;28;19928;-74
2023/01/24 03:35:35;;;;;;;;;;;;;;;-144.99;91.63;52513.31;5092304;28;19947;-74
2023/01/24 03:40:46;;;;;;;;;;;;;;;-144.99;91.64;52550.00;5079927;28;19935;-75
2023/01/24 03:43:12;;;;;;;;;;;;;;;-144.99;91.48;52558.16;5081946;28;19925;-75
2023/01/24 03:45:39;;;;;;;;;;;;;;;-144.99;91.44;52558.16;5093860;28;19929;-76
2023/01/24 03:48:12;;;;;;;;;;;;;;;-144.99;91.41;52521.47;5090274;28;19909;-75
2023/01/24 03:53:24;;;;;;;;;;;;;;;-144.99;91.31;52545.94;5082439;28;20151;-76
2023/01/24 03:55:52;;;;;;;;;;;;;;;-144.99;91.45;52521.47;5087471;28;19940;-78
2023/01/24 03:58:19;;;;;;;;;;;;;;;-144.99;91.56;52545.94;5084165;28;19908;-75
2023/01/24 04:00:45;;;;;;;;;;;;;;;-144.99;91.54;52521.47;5099796;28;19921;-74
2023/01/24 04:03:13;;;;;;;;;;;;;;;-144.99;91.51;52529.63;5091073;28;19929;-75
2023/01/24 04:05:39;;;;;;;;;;;;;;;-144.99;91.66;52554.09;5075849;28;20426;-76
2023/01/24 04:08:06;;;;;;;;;;;;;;;-144.99;91.67;52566.31;5087833;28;19951;-74
2023/01/24 04:10:33;;;;;;;;;;;;;;;-144.99;91.69;52509.25;5088482;28;19978;-75
2023/01/24 04:13:00;;;;;;;;;;;;;;;-144.99;91.67;52525.56;5077855;28;19955;-74
2023/01/24 04:15:27;;;;;;;;;;;;;;;-144.99;91.65;52562.25;5092591;28;19909;-75
2023/01/24 04:17:56;;;;;;;;;;;;;;;-144.99;91.59;52531.66;5069665;28;19929;-73
2023/01/24 04:20:24;;;;;;;;;;;;;;;-144.99;91.21;52570.38;5072368;28;20589;-75
2023/01/24 04:22:50;;;;;;;;;;;;;;;-144.99;91.07;52578.53;5072765;28;19959;-75
2023/01/24 04:25:17;;;;;;;;;;;;;;;-144.99;90.83;52570.38;5065995;28;19952;-74
2023/01/24 04:27:44;;;;;;;;;;;;;;;-144.99;91.34;52529.63;5069855;28;20422;-77
2023/01/24 04:30:11;;;;;;;;;;;;;;;-144.99;91.32;52558.16;5070048;28;20510;-75
2023/01/24 04:32:38;;;;;;;;;;;;;;;-144.99;91.49;52562.25;5062118;28;20377;-76
2023/01/24 04:35:04;;;;;;;;;;;;;;;-144.99;89.25;52594.84;5063011;28;19975;-76
2023/01/24 04:37:33;;;;;;;;;;;;;;;-144.99;88.10;52517.41;5054449;28;20019;-76
2023/01/24 04:40:00;;;;;;;;;;;;;;;-144.99;89.26;52537.78;5063849;28;19976;-76
2023/01/24 04:42:26;;;;;;;;;;;;;;;-144.99;89.77;52501.09;5069999;28;19939;-76
2023/01/24 04:44:53;;;;;;;;;;;;;;;-144.99;90.21;52574.47;5068917;28;20707;-76
2023/01/24 04:47:19;;;;;;;;;;;;;;;-144.99;90.20;52497.00;5068055;28;20469;-75
2023/01/24 04:49:46;;;;;;;;;;;;;;;-144.99;90.17;52525.56;5067810;28;20422;-76
2023/01/24 04:52:13;;;;;;;;;;;;;;;-144.99;90.30;52558.16;5062559;28;19928;-76
2023/01/24 04:54:41;;;;;;;;;;;;;;;-144.99;89.76;52523.50;5060076;28;19965;-76
2023/01/24 04:57:08;;;;;;;;;;;;;;;-144.99;89.74;52537.78;5059657;28;19979;-76
2023/01/24 04:59:34;;;;;;;;;;;;;;;-144.99;89.69;52541.84;5072069;28;19929;-77
2023/01/24 05:02:01;;;;;;;;;;;;;;;-144.99;89.63;52525.56;5084046;28;19963;-77
2023/01/24 05:04:28;;;;;;;;;;;;;;;-144.99;89.53;52521.47;5090224;28;19912;-77
2023/01/24 05:06:54;;;;;;;;;;;;;;;-144.99;89.58;52586.69;5088695;28;20116;-76
2023/01/24 05:09:20;;;;;;;;;;;;;;;-144.99;89.37;52525.56;5077316;28;19920;-76
2023/01/24 05:11:48;;;;;;;;;;;;;;;-144.99;89.21;52521.47;5079741;28;20295;-75
2023/01/24 05:14:15;;;;;;;;;;;;;;;-144.99;89.23;52554.09;5077528;28;19963;-74
2023/01/24 05:16:41;;;;;;;;;;;;;;;-144.99;89.13;52558.16;5071983;28;19928;-76
2023/01/24 05:19:08;;;;;;;;;;;;;;;-144.99;89.20;52521.47;5071315;28;19963;-75
2023/01/24 05:21:34;;;;;;;;;;;;;;;-144.99;88.83;52529.63;5072901;28;19975;-73
2023/01/24 05:24:01;;;;;;;;;;;;;;;-144.99;88.80;52558.16;5072171;28;19954;-74
2023/01/24 05:26:27;;;;;;;;;;;;;;;-144.99;88.72;52541.84;5075087;28;19925;-74
2023/01/24 05:28:55;;;;;;;;;;;;;;;-144.99;88.75;52554.09;5070843;28;20399;-73
2023/01/24 05:31:22;;;;;;;;;;;;;;;-144.99;89.00;52574.47;5061217;28;19968;-74
2023/01/24 05:33:48;;;;;;;;;;;;;;;-144.99;89.10;52541.84;5114622;22;19935;-75
2023/01/24 05:36:16;;;;;;;;;;;;;;;-144.99;88.96;52539.81;5083338;28;19929;-77
2023/01/24 05:38:43;;;;;;;;;;;;;;;-144.99;88.74;52564.28;5083406;28;19932;-77
2023/01/24 05:41:11;;;;;;;;;;;;;;;-144.99;88.73;52576.50;5093079;28;19967;-74
2023/01/24 05:43:38;;;;;;;;;;;;;;;-144.99;88.64;52509.25;5083930;28;19970;-75
2023/01/24 05:46:07;;;;;;;;;;;;;;;-144.99;87.76;52545.94;5069810;28;20495;-75
2023/01/24 05:48:33;;;;;;;;;;;;;;;-144.99;87.30;52552.03;5073986;28;20011;-76
2023/01/24 05:51:00;;;;;;;;;;;;;;;-144.99;86.94;52533.69;5073846;28;19971;-76
2023/01/24 05:53:27;;;;;;;;;;;;;;;-144.99;86.52;52525.56;5072410;28;19932;-76
2023/01/24 05:55:57;;;;;;;;;;;;;;;-144.99;86.48;52566.31;5071458;28;19947;-77
2023/01/24 05:58:23;;;;;;;;;;;;;;;-144.99;85.82;52525.56;5069721;28;20407;-78
2023/01/24 06:00:50;;;;;;;;;;;;;;;-144.99;85.81;52513.31;5068471;28;20388;-76
2023/01/24 06:03:18;;;;;;;;;;;;;;;-144.99;85.25;52554.09;5071737;28;19928;-77
2023/01/24 06:05:48;;;;;;;;;;;;;;;-144.99;84.70;52517.41;5073936;28;19928;-76
2023/01/24 06:08:14;;;;;;;;;;;;;;;-144.99;83.89;52566.31;5082112;28;19909;-74
2023/01/24 06:10:41;;;;;;;;;;;;;;;-144.99;83.37;52501.09;5096865;28;19924;-76
2023/01/24 06:13:07;;;;;;;;;;;;;;;-144.99;83.17;52562.25;5071579;28;19924;-76
2023/01/24 06:15:34;;;;;;;;;;;;;;;-144.99;83.02;52543.91;5072684;28;20451;-76
2023/01/24 06:18:00;;;;;;;;;;;;;;;-144.99;83.01;52515.34;5073559;28;20009;-76
2023/01/24 06:20:28;;;;;;;;;;;;;;;-144.99;82.81;52529.63;5072442;28;19928;-74
2023/01/24 06:22:57;;;;;;;;;;;;;;;-144.99;82.68;52527.59;4717769;28;10000190;-75
2023/01/24 06:25:24;;;;;;;;;;;;;;;-144.99;83.08;52554.09;5066544;28;19982;-75
2023/01/24 06:27:51;;;;;;;;;;;;;;;-144.99;83.50;52529.63;5069144;28;20361;-75
2023/01/24 06:30:18;;;;;;;;;;;;;;;-144.99;83.44;52562.25;5063217;28;20587;-73
2023/01/24 06:32:58;;;;;;;;;;;;;;;-144.99;83.16;52554.09;5064429;28;19925;-75
2023/01/24 06:35:29;;;;;;;;;;;;;;;-144.99;82.83;52541.84;5067913;28;19944;-75
2023/01/24 06:37:58;;;;;;;;;;;;;;;-144.99;82.64;52558.16;5069641;28;20533;-77
2023/01/24 06:40:26;;;;;;;;;;;;;;;-144.99;82.60;52558.16;5068160;28;19925;-77
2023/01/24 06:42:53;;;;;;;;;;;;;;;-144.99;82.24;52515.34;5068125;28;20443;-76
2023/01/24 06:45:20;;;;;;;;;;;;;;;-144.99;82.28;52509.25;5076079;28;19913;-76
2023/01/24 06:47:46;;;;;;;;;;;;;;;-144.99;82.09;52554.09;5096330;28;19928;-75
2023/01/24 06:50:14;;;;;;;;;;;;;;;-144.99;81.72;52550.00;5074133;28;20378;-76
2023/01/24 06:52:41;;;;;;;;;;;;;;;-144.99;82.35;52537.78;5067842;28;20019;-76
2023/01/24 06:55:09;;;;;;;;;;;;;;;-144.99;82.32;52550.00;5066719;28;19963;-75
2023/01/24 06:57:35;;;;;;;;;;;;;;;-144.99;82.43;52572.44;5068356;28;19964;-76
2023/01/24 07:00:02;;;;;;;;;;;;;;;-144.99;82.48;52554.09;5066708;28;19946;-75
2023/01/24 07:02:29;;;;;;;;;;;;;;;-144.99;82.30;52570.38;5069059;28;19933;-75
2023/01/24 07:04:55;;;;;;;;;;;;;;;-144.99;82.35;52580.59;5066810;28;19959;-75
2023/01/24 07:07:22;;;;;;;;;;;;;;;-144.99;82.22;52545.94;5067516;28;19928;-75
2023/01/24 07:09:48;;;;;;;;;;;;;;;-144.99;82.13;52513.31;5070759;28;20520;-75
2023/01/24 07:12:16;;;;;;;;;;;;;;;-144.99;81.94;52574.47;5066081;28;19928;-75
2023/01/24 07:14:43;;;;;;;;;;;;;;;-144.99;81.61;52554.09;5069312;28;19936;-75
2023/01/24 07:17:09;;;;;;;;;;;;;;;-144.99;81.60;52533.69;5075371;28;19925;-74
2023/01/24 07:19:36;;;;;;;;;;;;;;;-144.99;81.44;52558.16;5075627;28;19929;-76
2023/01/24 07:22:03;;;;;;;;;;;;;;;-144.99;80.80;52578.53;5076536;28;20007;-76
2023/01/24 07:24:30;;;;;;;;;;;;;;;-144.99;79.75;52550.00;5080272;28;19925;-75
2023/01/24 07:26:57;;;;;;;;;;;;;;;-144.99;79.87;52570.38;5074598;28;19981;-75
2023/01/24 07:29:25;;;;;;;;;;;;;;;-144.99;78.67;52521.47;5073352;28;19956;-76
2023/01/24 07:31:53;;;;;;;;;;;;;;;-144.99;78.45;52564.28;5073913;28;19925;-75
2023/01/24 07:34:19;;;;;;;;;;;;;;;-144.99;76.11;52543.91;5072511;28;19985;-77
2023/01/24 07:36:46;;;;;;;;;;;;;;;-144.99;76.40;52558.16;5074359;28;19947;-77
2023/01/24 07:39:13;;;;;;;;;;;;;;;-144.99;76.62;52529.63;5080697;28;19991;-77
2023/01/24 07:41:42;;;;;;;;;;;;;;;-144.99;76.68;52539.81;5077996;28;20005;-77
2023/01/24 07:44:08;;;;;;;;;;;;;;;-144.99;76.32;52566.31;5064921;28;19947;-76
2023/01/24 07:46:37;;;;;;;;;;;;;;;-144.99;76.46;52529.63;5070262;28;20055;-74
2023/01/24 07:49:03;;;;;;;;;;;;;;;-144.99;75.75;52550.00;5067206;28;19936;-76
2023/01/24 07:51:30;;;;;;;;;;;;;;;-144.99;75.23;52533.69;5070761;28;20391;-77
2023/01/24 07:53:56;;;;;;;;;;;;;;;-144.99;74.88;52574.47;5063318;28;20065;-76
2023/01/24 07:56:23;;;;;;;;;;;;;;;-144.99;74.44;52525.56;5070019;28;20023;-77
2023/01/24 07:58:50;;;;;;;;;;;;;;;-144.99;74.34;52513.31;5071421;28;19928;-78
2023/01/24 08:01:17;;;;;;;;;;;;;;;-144.99;73.95;52513.31;5088481;28;19912;-76
2023/01/24 08:03:44;;;;;;;;;;;;;;;-144.99;74.05;52562.25;5082171;28;19932;-78
2023/01/24 08:06:11;;;;;;;;;;;;;;;-144.99;73.39;52527.59;5067839;28;20064;-77
2023/01/24 08:08:37;;;;;;;;;;;;;;;-144.99;73.37;52588.75;5066503;28;20371;-77
2023/01/24 08:11:04;;;;;;;;;;;;;;;-144.99;73.52;52558.16;5065262;28;20430;-77
2023/01/24 08:13:30;;;;;;;;;;;;;;;-144.99;73.43;52562.25;5064779;28;19928;-77
2023/01/24 08:15:57;;;;;;;;;;;;;;;-144.99;73.18;52562.25;5066110;28;20070;-76
2023/01/24 08:18:23;;;;;;;;;;;;;;;-144.99;73.11;52521.47;5066783;28;20031;-76
2023/01/24 08:20:54;;;;;;;;;;;;;;;-144.99;73.23;52554.09;5067145;28;20019;-76
2023/01/24 08:23:21;;;;;;;;;;;;;;;-144.99;73.20;52525.56;5065290;28;19936;-76
2023/01/24 08:25:47;;;;;;;;;;;;;;;-144.99;73.37;52566.31;5067878;28;19968;-78
2023/01/24 08:28:14;;;;;;;;;;;;;;;-144.99;73.33;52574.47;5067538;28;19978;-77
2023/01/24 08:30:40;;;;;;;;;;;;;;;-144.99;73.49;52558.16;5067089;28;20537;-75
2023/01/24 08:33:07;;;;;;;;;;;;;;;-144.99;73.22;52554.09;5065487;28;19972;-77
2023/01/24 08:35:34;;;;;;;;;;;;;;;-144.99;73.36;52558.16;5067950;28;20005;-75
2023/01/24 08:38:01;;;;;;;;;;;;;;;-144.99;72.86;52574.47;5084489;28;19923;-77
2023/01/24 08:40:28;;;;;;;;;;;;;;;-144.99;72.81;52533.69;5089163;28;19928;-74
2023/01/24 08:42:54;;;;;;;;;;;;;;;-144.99;72.81;52545.94;5064664;28;19983;-77
2023/01/24 08:45:21;;;;;;;;;;;;;;;-144.99;73.04;52550.00;5068250;28;19968;-75
2023/01/24 08:47:51;;;;;;;;;;;;;;;-144.99;73.17;52539.81;5067157;28;19998;-74
2023/01/24 08:50:19;;;;;;;;;;;;;;;-144.99;73.08;52570.38;5067053;28;19972;-75
2023/01/24 08:52:45;;;;;;;;;;;;;;;-144.99;73.14;52566.31;5061939;28;19928;-74
2023/01/24 08:55:13;;;;;;;;;;;;;;;-144.99;73.06;52537.78;5071445;28;19978;-75
2023/01/24 08:57:40;;;;;;;;;;;;;;;-144.99;72.92;52529.63;5058078;28;20685;-76
2023/01/24 09:00:08;;;;;;;;;;;;;;;-144.99;72.80;52541.84;5070489;28;19967;-76
2023/01/24 09:02:37;;;;;;;;;;;;;;;-144.99;72.45;52558.16;5070234;28;19939;-76
2023/01/24 09:05:04;;;;;;;;;;;;;;;-144.99;71.88;52574.47;5069840;28;20013;-75
2023/01/24 09:07:30;;;;;;;;;;;;;;;-144.99;72.09;52598.94;5062751;28;20007;-79
2023/01/24 09:09:57;;;;;;;;;;;;;;;-144.99;71.59;52564.28;5068514;28;19960;-75
2023/01/24 09:12:25;;;;;;;;;;;;;;;-144.99;71.74;52533.69;5067446;28;19972;-76
2023/01/24 09:14:51;;;;;;;;;;;;;;;-144.99;71.33;52558.16;5078039;28;19933;-78
2023/01/24 09:17:18;;;;;;;;;;;;;;;-144.99;71.51;52574.47;5092948;28;19925;-75
2023/01/24 09:19:44;;;;;;;;;;;;;;;-144.99;71.65;52562.25;5068057;28;20379;-75
2023/01/24 09:22:10;;;;;;;;;;;;;;;-144.99;71.63;52570.38;5069296;28;19968;-75
2023/01/24 09:24:37;;;;;;;;;;;;;;;-144.99;71.58;52574.47;5069150;28;19952;-74
2023/01/24 09:27:04;;;;;;;;;;;;;;;-144.99;71.52;52566.31;5069998;28;19959;-77
2023/01/24 09:29:32;;;;;;;;;;;;;;;-144.99;71.35;52560.19;5070548;28;20027;-75
2023/01/24 09:31:58;;;;;;;;;;;;;;;-144.99;70.94;52562.25;5071030;28;19924;-78
2023/01/24 09:34:25;;;;;;;;;;;;;;;-144.99;71.28;52566.31;5070243;28;20465;-77
2023/01/24 09:36:51;;;;;;;;;;;;;;;-144.99;71.08;52550.00;5081748;28;20407;-76
2023/01/24 09:39:18;;;;;;;;;;;;;;;-144.99;71.16;52554.09;5082879;28;19984;-76
2023/01/24 09:41:55;;;;;;;;;;;;;;;-144.99;70.87;52533.69;5070036;28;19964;-77
2023/01/24 09:44:27;;;;;;;;;;;;;;;-144.99;70.64;52545.94;5079332;28;19928;-76
2023/01/24 09:46:56;;;;;;;;;;;;;;;-144.99;70.60;52572.44;5066578;28;19968;-77
2023/01/24 09:49:25;;;;;;;;;;;;;;;-144.99;70.17;52539.81;5057757;28;19984;-77
2023/01/24 09:51:52;;;;;;;;;;;;;;;-144.99;70.38;52578.53;5077071;28;19913;-76
2023/01/24 09:54:28;;;;;;;;;;;;;;;-144.99;70.44;52545.94;5095538;28;19946;-76
2023/01/24 09:56:56;;;;;;;;;;;;;;;-144.99;70.57;52547.97;5064740;28;20028;-77
2023/01/24 09:59:24;;;;;;;;;;;;;;;-144.99;70.72;52570.38;5068126;28;19928;-76
2023/01/24 10:01:52;;;;;;;;;;;;;;;-144.99;70.53;52566.31;5072517;28;19928;-75
2023/01/24 10:04:22;;;;;;;;;;;;;;;-144.99;70.37;52539.81;5074707;28;19968;-75
2023/01/24 10:06:56;;;;;;;;;;;;;;;-144.99;70.64;52582.63;5063546;28;19986;-75
2023/01/24 10:09:27;;;;;;;;;;;;;;;-144.99;70.50;52570.38;5068939;28;19967;-75
2023/01/24 10:12:02;;;;;;;;;;;;;;;-144.99;70.35;52592.81;5069181;28;19925;-77
2023/01/24 10:14:38;;;;;;;;;;;;;;;-144.99;70.32;52566.31;5067403;28;19932;-75
2023/01/24 10:17:23;;;;;;;;;;;;;;;-144.99;70.29;52537.78;5069701;28;20441;-74
2023/01/24 10:20:01;;;;;;;;;;;;;;;-144.99;70.12;52523.50;5078758;28;19928;-75
2023/01/24 10:22:41;;;;;;;;;;;;;;;-144.99;70.00;52550.00;5063723;28;19932;-75
2023/01/24 10:25:12;;;;;;;;;;;;;;;-144.99;69.41;52525.56;5065676;28;19982;-75
2023/01/24 10:27:41;;;;;;;;;;;;;;;-144.99;69.40;52562.25;5069578;28;20015;-76
2023/01/24 10:30:14;;;;;;;;;;;;;;;-144.99;69.35;52552.03;5107317;28;19931;-76
2023/01/24 10:32:43;;;;;;;;;;;;;;;-144.99;69.26;52560.19;5093340;28;19928;-76
2023/01/24 10:35:15;;;;;;;;;;;;;;;-144.99;69.18;52582.63;5066533;28;20041;-75
2023/01/24 10:37:43;;;;;;;;;;;;;;;-144.99;69.43;52550.00;5071190;28;19982;-74
2023/01/24 10:40:13;;;;;;;;;;;;;;;-144.99;68.82;52562.25;5068160;28;20008;-76
2023/01/24 10:42:40;;;;;;;;;;;;;;;-144.99;68.57;52578.53;5068608;28;20370;-75
2023/01/24 10:45:17;;;;;;;;;;;;;;;-144.99;68.31;52521.47;5066752;28;19925;-75
2023/01/24 10:47:45;;;;;;;;;;;;;;;-144.99;68.13;52541.84;5069154;28;20086;-74
2023/01/24 10:50:14;;;;;;;;;;;;;;;-144.99;67.88;52566.31;5070190;28;20024;-75
2023/01/24 10:52:41;;;;;;;;;;;;;;;-144.99;67.70;52539.81;5067779;28;19932;-74
2023/01/24 10:55:22;;;;;;;;;;;;;;;-144.99;67.54;52523.50;5066903;28;19960;-75
2023/01/24 10:57:50;;;;;;;;;;;;;;;-144.99;67.61;52533.69;5068957;28;20029;-77
2023/01/24 11:00:18;;;;;;;;;;;;;;;-144.99;66.96;52558.16;5068762;28;20023;-75
2023/01/24 11:02:47;;;;;;;;;;;;;;;-144.99;66.79;52590.78;5068980;28;19932;-76
2023/01/24 11:05:15;;;;;;;;;;;;;;;-144.99;67.28;52543.91;5068755;28;19928;-77
2023/01/24 11:07:45;;;;;;;;;;;;;;;-144.99;67.29;52580.59;5103941;28;19912;-75
2023/01/24 11:10:18;;;;;;;;;;;;;;;-144.99;67.50;52570.38;5096242;28;19954;-75
2023/01/24 11:12:48;;;;;;;;;;;;;;;-144.99;67.52;52550.00;5072030;28;19990;-76
2023/01/24 11:15:18;;;;;;;;;;;;;;;-144.99;67.33;52566.31;5068364;28;20600;-76
2023/01/24 11:17:44;;;;;;;;;;;;;;;-144.99;67.16;52537.78;5066492;28;20589;-77
2023/01/24 11:20:21;;;;;;;;;;;;;;;-144.99;67.00;52562.25;5066711;28;19971;-75
2023/01/24 11:22:50;;;;;;;;;;;;;;;-144.99;67.09;52558.16;5067293;28;19967;-76
2023/01/24 11:25:17;;;;;;;;;;;;;;;-144.99;66.76;52578.53;5066394;28;20027;-77
2023/01/24 11:27:47;;;;;;;;;;;;;;;-144.99;66.88;52521.47;5067599;28;20394;-75
2023/01/24 11:30:18;;;;;;;;;;;;;;;-144.99;66.93;52598.94;5070916;28;19939;-75
2023/01/24 11:32:48;;;;;;;;;;;;;;;-144.99;66.91;52574.47;5066329;28;20419;-75
2023/01/24 11:35:19;;;;;;;;;;;;;;;-144.99;66.50;52521.47;5072316;28;20431;-75
2023/01/24 11:38:06;;;;;;;;;;;;;;;-144.99;66.64;52541.84;5066974;28;19954;-75
2023/01/24 11:40:38;;;;;;;;;;;;;;;-144.99;66.78;52566.31;5085311;28;19967;-74
2023/01/24 11:43:12;;;;;;;;;;;;;;;-144.99;66.80;52541.84;5082102;28;19954;-76
2023/01/24 11:45:46;;;;;;;;;;;;;;;-144.99;66.90;52529.63;5090570;28;19924;-76
2023/01/24 11:48:19;;;;;;;;;;;;;;;-144.99;66.82;52558.16;5066792;28;19929;-74
2023/01/24 11:50:50;;;;;;;;;;;;;;;-144.99;66.64;52545.94;5065018;28;19924;-76
2023/01/24 11:53:34;;;;;;;;;;;;;;;-144.99;66.71;52541.84;5066810;28;19928;-75
2023/01/24 11:56:06;;;;;;;;;;;;;;;-144.99;66.82;52545.94;5067332;28;19968;-75
2023/01/24 11:58:43;;;;;;;;;;;;;;;-144.99;66.83;52552.03;5066937;28;19976;-76
2023/01/24 12:01:14;;;;;;;;;;;;;;;-144.99;66.88;52554.09;5064968;28;19990;-75
2023/01/24 12:03:49;;;;;;;;;;;;;;;-144.99;66.55;52521.47;4715695;28;10000274;-76
2023/01/24 12:06:21;;;;;;;;;;;;;;;-144.99;66.66;52521.47;5059189;28;19928;-77
2023/01/24 12:09:00;;;;;;;;;;;;;;;-144.99;66.43;52547.97;5067117;28;19928;-76
2023/01/24 12:11:29;;;;;;;;;;;;;;;-144.99;66.39;52541.84;5066512;28;20403;-76
2023/01/24 12:14:05;;;;;;;;;;;;;;;-144.99;66.20;52554.09;5068508;28;19937;-77
2023/01/24 12:16:42;;;;;;;;;;;;;;;-144.99;66.13;52570.38;5063489;28;19925;-75
2023/01/24 12:19:26;;;;;;;;;;;;;;;-144.99;66.34;52529.63;5087304;28;19940;-75
2023/01/24 12:21:54;;;;;;;;;;;;;;;-144.99;66.34;52521.47;5087303;28;19931;-74
2023/01/24 12:24:25;;;;;;;;;;;;;;;-144.99;66.54;52568.34;5076724;28;19960;-77
2023/01/24 12:26:56;;;;;;;;;;;;;;;-144.99;66.33;52521.47;5089904;28;19929;-75
2023/01/24 12:29:25;;;;;;;;;;;;;;;-144.99;65.74;52603.00;5091385;28;19958;-76
2023/01/24 12:31:55;;;;;;;;;;;;;;;-144.99;66.06;52603.00;5076820;28;19990;-75
2023/01/24 12:34:30;;;;;;;;;;;;;;;-144.99;66.07;52607.09;5076599;28;20533;-74
2023/01/24 12:37:00;;;;;;;;;;;;;;;-144.99;66.28;52582.63;5075650;28;19932;-76
2023/01/24 12:39:31;;;;;;;;;;;;;;;-144.99;66.18;52562.25;5076501;28;19964;-75
2023/01/24 12:42:02;;;;;;;;;;;;;;;-144.99;66.33;52529.63;5078078;28;19947;-78
2023/01/24 12:44:31;;;;;;;;;;;;;;;-144.99;66.16;52529.63;5064401;28;19974;-75
2023/01/24 12:47:06;;;;;;;;;;;;;;;-144.99;66.36;52570.38;5076944;28;19978;-77
2023/01/24 12:49:37;;;;;;;;;;;;;;;-144.99;65.90;52564.28;5075292;28;19928;-76
2023/01/24 12:52:07;;;;;;;;;;;;;;;-144.99;66.00;52566.31;5067180;28;20020;-76
2023/01/24 12:54:40;;;;;;;;;;;;;;;-144.99;66.10;52582.63;5067476;28;19939;-77
2023/01/24 12:57:14;;;;;;;;;;;;;;;-144.99;66.14;52568.34;5090358;28;20080;-77
2023/01/24 12:59:40;;;;;;;;;;;;;;;-144.99;66.15;52582.63;5087943;28;20624;-77
2023/01/24 13:02:31;;;;;;;;;;;;;;;-144.99;66.15;52570.38;5063593;28;19983;-77
2023/01/24 13:05:04;;;;;;;;;;;;;;;-144.99;66.15;52558.16;5065800;28;19967;-78
2023/01/24 13:07:34;;;;;;;;;;;;;;;-144.99;66.15;52558.16;5064918;28;20040;-76
2023/01/24 13:10:07;;;;;;;;;;;;;;;-144.99;66.32;52533.69;5067944;28;20644;-77